Date,TemperatureHighF,TemperatureAvgF,TemperatureLowF,DewpointHighF,DewpointAvgF,DewpointLowF,HumidityHigh,HumidityAvg,HumidityLow,PressureMaxIn,PressureMinIn,WindSpeedMaxMPH,WindSpeedAvgMPH,GustSpeedMaxMPH,PrecipitationSumIn
2013-1-1,15,10,0,5,-1,-5,94,61,44,0.00,40.00,9,3,22,0.00
2013-1-2,17,10,4,0,-4,-7,59,52,43,0.00,40.00,12,-3,25,0.00
2013-1-3,33,15,4,6,-3,-7,73,46,20,0.00,40.00,6,2,11,0.00
2013-1-4,42,20,11,15,10,4,87,68,29,0.00,40.00,3,1,6,0.00
2013-1-5,34,22,13,7,3,-2,64,43,30,0.00,40.00,7,2,19,0.00
2013-1-6,42,29,9,10,4,-2,62,37,20,0.00,40.00,11,3,21,0.00
2013-1-7,42,31,20,12,6,1,54,34,24,0.00,40.00,10,3,21,0.00
2013-1-8,31,28,24,17,14,1,65,55,28,0.00,40.00,16,7,39,0.00
2013-1-9,48,31,22,20,15,11,66,53,30,0.00,40.00,9,2,18,0.00
2013-1-10,42,30,21,20,12,9,65,49,30,0.00,40.00,7,2,16,0.00
2013-1-11,31,16,4,20,6,-8,97,64,43,0.00,40.00,16,8,39,0.00
2013-1-12,9,0,-10,-6,-10,-14,91,65,48,0.00,40.00,13,4,31,0.00
2013-1-13,7,-4,-13,1,-7,-15,92,88,65,0.00,40.00,7,2,12,0.00
2013-1-14,7,-4,-13,0,-11,-16,91,75,49,0.00,40.00,9,2,21,0.00
2013-1-15,27,17,2,16,4,-12,65,57,46,0.00,40.00,10,4,28,0.00
2013-1-16,39,29,16,20,17,12,85,60,45,0.00,40.00,10,3,23,0.00
2013-1-17,42,25,11,19,12,6,92,60,28,0.00,40.00,10,2,24,0.00
2013-1-18,36,32,29,10,7,5,36,33,31,0.00,40.00,19,9,35,0.00
2013-1-19,42,34,30,8,5,2,36,29,22,0.00,40.00,12,6,38,0.00
2013-1-20,36,31,26,9,6,1,40,33,28,0.00,40.00,16,6,34,0.00
2013-1-21,38,32,26,14,9,5,43,38,29,0.00,40.00,14,6,31,0.00
2013-1-22,43,38,33,7,3,-2,29,22,18,0.00,40.00,18,8,43,0.00
2013-1-23,48,41,30,11,5,-3,36,22,18,0.00,40.00,13,6,30,0.00
2013-1-24,39,37,32,11,8,5,36,29,27,0.00,40.00,10,5,26,0.00
2013-1-25,41,37,31,28,27,25,77,67,56,0.00,40.00,13,7,26,0.00
2013-1-26,45,35,26,29,26,21,97,72,48,0.00,40.00,9,2,22,0.00
2013-1-27,39,34,28,30,20,12,98,59,38,0.00,40.00,16,6,37,0.00
2013-1-28,37,30,22,24,14,8,74,50,39,0.00,40.00,16,6,39,0.00
2013-1-29,16,10,5,11,-3,-9,89,58,41,0.00,40.00,12,4,25,0.00
2013-1-30,21,14,3,15,5,-9,88,67,51,0.00,40.00,17,9,47,0.00
2013-1-31,27,24,20,16,13,11,78,62,53,0.00,40.00,17,9,43,0.00
2013-2-1,29,26,23,17,13,9,66,57,48,0.00,40.00,17,8,39,0.00
2013-2-2,38,31,25,10,7,4,51,35,28,0.00,40.00,14,7,38,0.00
2013-2-3,40,34,28,7,1,-1,36,25,18,0.00,40.00,11,7,27,0.00
2013-2-4,35,30,26,12,6,0,47,36,30,0.00,40.00,12,7,29,0.00
2013-2-5,43,35,29,22,18,12,61,49,41,0.00,40.00,13,5,27,0.00
2013-2-6,36,30,22,26,20,10,96,65,54,0.00,40.00,9,3,18,0.00
2013-2-7,37,22,9,11,1,-9,72,43,17,0.00,40.00,7,2,16,0.00
2013-2-8,41,25,13,11,5,-1,63,42,25,0.00,40.00,6,2,13,0.00
2013-2-9,26,20,15,20,14,6,97,76,57,0.00,40.00,9,2,21,0.00
2013-2-10,21,15,7,13,7,3,94,71,48,0.00,40.00,12,4,24,0.00
2013-2-11,19,9,-1,13,7,-2,94,90,73,0.00,40.00,5,1,11,0.00
2013-2-12,31,17,3,8,1,-8,92,50,35,0.00,40.00,8,4,32,0.00
2013-2-13,28,24,18,13,8,5,58,50,42,0.00,40.00,19,7,37,0.00
2013-2-14,28,18,8,15,10,7,95,69,51,0.00,40.00,11,4,31,0.00
2013-2-15,24,18,8,10,6,3,96,61,43,0.00,40.00,13,5,35,0.00
2013-2-16,36,29,24,14,10,7,54,44,33,0.00,40.00,14,8,40,0.00
2013-2-17,39,31,18,14,5,-1,79,34,21,0.00,40.00,22,9,42,0.00
2013-2-18,23,16,10,9,3,-3,70,56,38,0.00,40.00,14,5,29,0.00
2013-2-19,40,23,8,6,-1,-12,71,37,20,0.00,40.00,9,3,16,0.00
2013-2-20,35,21,10,16,11,4,97,66,38,0.00,40.00,7,2,14,0.00
2013-2-21,24,15,8,19,13,7,97,92,77,0.00,40.00,5,2,9,0.00
2013-2-22,25,17,11,10,4,-1,90,58,41,0.00,40.00,16,6,34,0.00
2013-2-23,36,23,14,18,9,-1,95,56,40,0.00,40.00,16,7,40,0.00
2013-2-24,18,14,0,17,12,-2,97,91,79,0.00,40.00,6,2,12,0.00
2013-2-25,35,18,0,14,6,-2,92,64,31,0.00,40.00,7,2,16,0.00
2013-2-26,28,19,13,15,10,2,85,66,51,0.00,40.00,14,4,22,0.00
2013-2-27,22,14,2,6,0,-6,75,52,38,0.00,40.00,11,4,22,0.00
2013-2-28,30,20,13,9,4,-2,58,49,40,0.00,40.00,17,6,35,0.00
2013-3-1,35,28,20,18,12,4,57,52,44,0.00,40.00,14,7,44,0.00
2013-3-2,43,36,30,22,19,16,59,50,42,0.00,40.00,11,5,32,0.00
2013-3-3,44,36,29,28,20,16,95,54,37,0.00,40.00,21,7,45,0.00
2013-3-4,31,22,13,27,13,-2,96,70,45,0.00,40.00,11,5,30,0.00
2013-3-5,41,27,12,4,-2,-8,55,31,16,0.00,40.00,13,6,29,0.00
2013-3-6,49,38,21,17,12,3,46,34,23,0.00,40.00,18,5,37,0.00
2013-3-7,50,39,24,22,16,11,86,42,26,0.00,40.00,20,6,47,0.00
2013-3-8,47,32,23,26,20,16,97,65,33,0.00,40.00,7,2,17,0.00
2013-3-9,29,21,12,25,18,6,98,88,70,0.00,40.00,6,2,15,0.00
2013-3-10,37,24,12,12,7,0,75,48,32,0.00,40.00,12,4,24,0.00
2013-3-11,35,28,21,24,15,9,97,58,44,0.00,40.00,18,8,39,0.00
2013-3-12,40,28,17,23,18,16,97,70,41,0.00,40.00,12,4,32,0.00
2013-3-13,47,38,32,21,18,16,56,44,31,0.00,40.00,14,8,34,0.00
2013-3-14,51,43,37,20,18,15,44,35,28,0.00,40.00,14,5,30,0.00
2013-3-15,55,47,41,23,19,16,44,33,27,0.00,40.00,16,7,40,0.00
2013-3-16,42,36,29,32,23,17,87,60,44,0.00,40.00,12,4,30,0.00
2013-3-17,37,29,17,25,18,2,96,63,45,0.00,40.00,15,7,32,0.00
2013-3-18,28,21,14,18,6,-4,79,53,41,0.00,40.00,15,9,45,0.00
2013-3-19,34,25,19,10,0,-7,53,33,19,0.00,40.00,19,8,41,0.00
2013-3-20,46,32,15,21,11,-2,58,41,32,0.00,40.00,14,5,35,0.00
2013-3-21,40,30,22,29,18,3,91,59,39,0.00,40.00,16,6,43,0.00
2013-3-22,31,21,13,18,10,4,97,66,37,0.00,40.00,13,4,24,0.00
2013-3-23,16,9,-2,13,6,-4,96,88,71,0.00,40.00,6,2,12,0.00
2013-3-24,15,6,-6,3,0,-8,90,75,51,0.00,40.00,10,3,21,0.00
2013-3-25,28,14,2,6,1,-3,90,60,33,0.00,40.00,9,3,19,0.00
2013-3-26,42,28,8,25,16,4,88,60,41,0.00,40.00,12,5,30,0.00
2013-3-27,42,33,24,26,22,20,97,68,43,0.00,40.00,12,3,23,0.00
2013-3-28,50,36,24,28,22,18,85,59,33,0.00,40.00,9,2,17,0.00
2013-3-29,46,35,26,34,26,22,94,69,47,0.00,40.00,10,3,20,0.00
2013-3-30,45,37,28,32,23,-100,96,60,40,0.00,40.00,12,5,26,0.00
2013-3-31,51,38,22,27,17,8,98,48,23,0.00,40.00,13,4,31,0.00
2013-4-1,43,32,21,30,25,19,98,78,49,0.00,40.00,5,2,11,0.00
2013-4-2,33,29,25,31,28,25,98,96,93,0.00,40.00,5,1,10,0.00
2013-4-3,51,33,18,34,22,14,97,70,27,0.00,40.00,6,2,17,0.00
2013-4-4,52,41,32,25,22,20,67,47,32,0.00,40.00,11,4,25,0.00
2013-4-5,54,41,33,32,23,20,93,50,32,0.00,40.00,17,5,47,0.00
2013-4-6,47,38,31,24,18,14,59,45,33,0.00,40.00,16,6,32,0.00
2013-4-7,44,36,31,30,23,17,95,59,35,0.00,40.00,12,7,29,0.00
2013-4-8,48,34,24,31,23,17,97,65,39,0.00,40.00,9,3,20,0.00
2013-4-9,24,11,1,24,7,-2,97,83,66,0.00,40.00,7,3,12,0.00
2013-4-10,29,15,-2,18,6,-5,88,69,46,0.00,40.00,14,4,29,0.00
2013-4-11,39,32,24,23,17,7,60,52,46,0.00,40.00,11,5,29,0.00
2013-4-12,44,34,27,25,17,11,92,53,28,0.00,40.00,15,5,30,0.00
2013-4-13,48,37,29,32,18,9,96,50,28,0.00,40.00,20,7,45,0.00
2013-4-14,32,24,18,31,6,-2,97,49,31,0.00,40.00,21,7,43,0.00
2013-4-15,23,19,15,19,16,12,93,90,70,0.00,40.00,6,2,16,0.00
2013-4-16,26,18,12,20,16,10,95,90,74,0.00,40.00,7,1,10,0.00
2013-4-17,24,16,3,19,13,-1,95,89,76,0.00,40.00,6,2,12,0.00
2013-4-18,24,12,0,5,1,-3,88,61,43,0.00,40.00,16,6,33,0.00
2013-4-19,35,27,19,17,10,2,59,49,41,0.00,40.00,16,8,38,0.00
2013-4-20,42,34,27,25,20,16,69,56,44,0.00,40.00,12,5,21,0.00
2013-4-21,42,34,29,24,19,16,79,55,37,0.00,40.00,13,5,22,0.00
2013-4-22,41,28,11,28,21,10,95,78,41,0.00,40.00,9,4,21,0.00
2013-4-23,30,20,10,20,12,8,92,71,48,0.00,40.00,9,3,14,0.00
2013-4-24,37,26,12,12,9,6,77,51,29,0.00,40.00,13,5,29,0.00
2013-4-25,52,36,19,23,13,6,79,42,23,0.00,40.00,13,4,29,0.00
2013-4-26,53,37,25,23,19,17,80,52,27,0.00,40.00,3,1,12,0.00
2013-4-27,56,43,27,23,20,17,80,41,25,0.00,40.00,8,4,21,0.00
2013-4-28,61,49,40,31,24,19,65,38,29,0.00,40.00,14,5,27,0.00
2013-4-29,62,49,33,34,26,22,87,45,25,0.00,40.00,17,5,45,0.00
2013-4-30,51,42,30,37,30,23,98,65,33,0.00,40.00,11,4,29,0.00
2013-5-1,30,22,7,29,20,5,98,93,86,0.00,40.00,7,2,14,0.00
2013-5-2,36,22,4,22,11,1,90,65,41,0.00,40.00,10,2,21,0.00
2013-5-3,52,36,25,25,16,9,73,44,25,0.00,40.00,7,3,16,0.00
2013-5-4,43,32,21,29,24,20,95,74,43,0.00,40.00,5,1,14,0.00
2013-5-5,49,35,21,33,25,19,96,70,41,0.00,40.00,7,2,14,0.00
2013-5-6,54,40,29,32,28,24,97,66,32,0.00,40.00,8,2,16,0.00
2013-5-7,54,42,32,35,29,26,90,60,35,0.00,40.00,11,4,21,0.00
2013-5-8,51,36,29,36,32,27,97,87,44,0.00,40.00,7,1,21,0.00
2013-5-9,46,36,30,37,33,29,97,89,51,0.00,40.00,7,-6,15,0.00
2013-5-10,54,41,28,33,25,-100,97,61,32,0.00,40.00,8,2,24,0.00
2013-5-11,55,40,29,34,28,-100,95,67,34,0.00,40.00,7,2,24,0.00
2013-5-12,63,51,37,31,28,26,72,43,28,0.00,40.00,9,4,24,0.00
2013-5-13,62,55,50,34,30,29,43,38,33,0.00,40.00,11,5,22,0.00
2013-6-12,80,65,51,42,32,22,58,30,23,0.00,40.00,11,3,30,0.00
2013-6-13,80,63,46,44,40,33,78,47,22,0.00,40.00,10,3,24,0.00
2013-6-14,78,62,48,42,38,31,75,43,21,0.00,40.00,8,3,23,0.00
2013-6-15,74,56,41,45,42,31,94,63,21,0.00,40.00,11,2,28,0.00
2013-6-16,67,55,44,44,37,31,87,54,29,0.00,40.00,11,3,28,0.00
2013-6-17,69,56,40,47,40,32,91,57,37,0.00,40.00,9,2,21,0.00
2013-6-18,72,56,41,45,41,37,97,62,28,0.00,40.00,7,2,17,0.00
2013-6-19,78,62,39,43,30,14,96,41,13,0.00,40.00,10,4,25,0.00
2013-6-23,71,53,43,44,31,24,60,42,33,0.00,40.00,5,2,16,0.00
2013-6-24,65,53,41,37,34,31,87,58,28,0.00,40.00,6,4,12,0.00
2013-6-25,71,69,58,41,39,27,33,32,30,0.00,40.00,5,4,16,0.00
2013-6-26,48,48,48,32,32,32,54,54,54,0.00,40.00,0,0,1,0.00
2013-6-28,71,71,71,59,59,59,66,66,66,0.00,40.00,2,2,6,0.00
2013-6-29,65,54,51,53,49,48,92,86,64,0.00,40.00,1,0,4,0.00
2013-7-13,63,60,50,52,51,49,96,71,65,0.00,40.00,6,5,13,0.00
2013-7-14,50,48,46,49,47,45,96,96,96,0.00,40.00,1,0,4,0.00
2013-7-15,55,54,51,54,53,50,96,96,95,0.00,40.00,2,1,4,0.00
2013-7-16,71,63,47,46,44,41,96,54,33,0.00,40.00,4,2,9,0.00
2013-7-17,52,52,52,46,46,46,80,80,80,0.00,40.00,1,1,2,0.00
2013-7-18,60,54,53,51,50,45,94,90,58,0.00,40.00,2,1,5,0.00
2013-7-19,54,54,54,53,53,53,94,94,94,0.00,40.00,1,1,2,0.00
2013-7-20,74,70,47,41,41,40,77,37,29,0.00,40.00,2,2,7,0.00
2013-7-22,80,70,54,40,32,26,47,25,16,0.00,40.00,7,3,21,0.00
2013-7-23,71,58,51,42,28,25,43,32,25,0.00,40.00,4,2,10,0.00
2013-7-24,55,54,52,47,47,47,85,78,74,0.00,40.00,6,4,9,0.00
2013-7-25,63,62,62,42,42,41,48,47,44,0.00,40.00,6,5,19,0.00
2013-7-26,71,71,71,42,42,42,34,34,34,0.00,40.00,1,1,6,0.00
2013-7-27,52,50,47,50,47,40,94,88,75,0.00,40.00,1,1,3,0.00